sensor_id;sensor_type;location;lat;lon;timestamp;P1;durP1;ratioP1;P2;durP2;ratioP2
39356;SDS011;25077;50.302;18.996;2022-11-14T00:01:06;94.13;;;21.70;;
39356;SDS011;25077;50.302;18.996;2022-11-14T00:09:15;112.57;;;21.30;;
39356;SDS011;25077;50.302;18.996;2022-11-14T00:12:35;103.73;;;21.17;;
39356;SDS011;25077;50.302;18.996;2022-11-14T00:15:55;85.40;;;20.83;;
39356;SDS011;25077;50.302;18.996;2022-11-14T00:19:15;86.60;;;20.80;;
39356;SDS011;25077;50.302;18.996;2022-11-14T00:22:36;129.00;;;23.30;;
39356;SDS011;25077;50.302;18.996;2022-11-14T00:25:57;72.60;;;20.57;;
39356;SDS011;25077;50.302;18.996;2022-11-14T00:29:17;86.57;;;21.13;;
39356;SDS011;25077;50.302;18.996;2022-11-14T00:32:38;82.67;;;21.20;;
39356;SDS011;25077;50.302;18.996;2022-11-14T00:40:44;96.60;;;20.13;;
39356;SDS011;25077;50.302;18.996;2022-11-14T00:44:06;108.17;;;19.23;;
39356;SDS011;25077;50.302;18.996;2022-11-14T00:47:27;55.60;;;19.33;;
39356;SDS011;25077;50.302;18.996;2022-11-14T00:50:47;80.90;;;20.80;;
39356;SDS011;25077;50.302;18.996;2022-11-14T00:54:07;69.90;;;19.50;;
39356;SDS011;25077;50.302;18.996;2022-11-14T00:57:28;105.90;;;21.57;;
39356;SDS011;25077;50.302;18.996;2022-11-14T01:00:50;114.90;;;20.83;;
39356;SDS011;25077;50.302;18.996;2022-11-14T01:08:56;127.33;;;20.57;;
39356;SDS011;25077;50.302;18.996;2022-11-14T01:12:16;122.20;;;19.77;;
39356;SDS011;25077;50.302;18.996;2022-11-14T01:15:37;67.80;;;19.17;;
39356;SDS011;25077;50.302;18.996;2022-11-14T01:19:00;67.93;;;21.23;;
39356;SDS011;25077;50.302;18.996;2022-11-14T01:22:21;76.37;;;19.20;;
39356;SDS011;25077;50.302;18.996;2022-11-14T01:25:41;136.57;;;22.63;;
39356;SDS011;25077;50.302;18.996;2022-11-14T01:29:02;137.07;;;21.13;;
39356;SDS011;25077;50.302;18.996;2022-11-14T01:32:22;56.73;;;21.37;;
39356;SDS011;25077;50.302;18.996;2022-11-14T01:40:30;172.03;;;21.20;;
39356;SDS011;25077;50.302;18.996;2022-11-14T01:43:51;106.63;;;21.37;;
39356;SDS011;25077;50.302;18.996;2022-11-14T01:47:11;113.50;;;21.23;;
39356;SDS011;25077;50.302;18.996;2022-11-14T01:50:35;61.17;;;19.00;;
39356;SDS011;25077;50.302;18.996;2022-11-14T01:53:56;75.07;;;20.33;;
39356;SDS011;25077;50.302;18.996;2022-11-14T01:57:22;107.17;;;19.70;;
39356;SDS011;25077;50.302;18.996;2022-11-14T02:00:46;122.30;;;20.13;;
39356;SDS011;25077;50.302;18.996;2022-11-14T02:08:53;60.63;;;16.73;;
39356;SDS011;25077;50.302;18.996;2022-11-14T02:12:16;70.33;;;18.17;;
39356;SDS011;25077;50.302;18.996;2022-11-14T02:15:38;77.90;;;17.60;;
39356;SDS011;25077;50.302;18.996;2022-11-14T02:18:58;82.03;;;18.77;;
39356;SDS011;25077;50.302;18.996;2022-11-14T02:22:29;92.07;;;19.53;;
39356;SDS011;25077;50.302;18.996;2022-11-14T02:25:49;65.10;;;19.40;;
39356;SDS011;25077;50.302;18.996;2022-11-14T02:29:10;141.50;;;20.63;;
39356;SDS011;25077;50.302;18.996;2022-11-14T02:32:30;58.07;;;19.57;;
39356;SDS011;25077;50.302;18.996;2022-11-14T02:40:37;104.27;;;20.10;;
39356;SDS011;25077;50.302;18.996;2022-11-14T02:43:57;88.83;;;21.83;;
39356;SDS011;25077;50.302;18.996;2022-11-14T02:47:18;156.50;;;22.97;;
39356;SDS011;25077;50.302;18.996;2022-11-14T02:50:38;140.30;;;22.70;;
39356;SDS011;25077;50.302;18.996;2022-11-14T02:53:59;125.17;;;22.03;;
39356;SDS011;25077;50.302;18.996;2022-11-14T02:57:20;110.30;;;22.47;;
39356;SDS011;25077;50.302;18.996;2022-11-14T03:00:41;108.10;;;25.13;;
39356;SDS011;25077;50.302;18.996;2022-11-14T03:04:01;68.37;;;23.77;;
39356;SDS011;25077;50.302;18.996;2022-11-14T03:08:25;93.40;;;22.00;;
39356;SDS011;25077;50.302;18.996;2022-11-14T03:11:46;88.97;;;23.30;;
39356;SDS011;25077;50.302;18.996;2022-11-14T03:15:08;89.93;;;24.47;;
39356;SDS011;25077;50.302;18.996;2022-11-14T03:18:30;88.53;;;23.23;;
39356;SDS011;25077;50.302;18.996;2022-11-14T03:21:50;113.37;;;24.47;;
39356;SDS011;25077;50.302;18.996;2022-11-14T03:25:10;69.33;;;24.20;;
39356;SDS011;25077;50.302;18.996;2022-11-14T03:28:31;76.47;;;25.63;;
39356;SDS011;25077;50.302;18.996;2022-11-14T03:31:53;91.37;;;25.83;;
39356;SDS011;25077;50.302;18.996;2022-11-14T03:35:13;157.63;;;27.50;;
39356;SDS011;25077;50.302;18.996;2022-11-14T03:38:33;127.73;;;28.93;;
39356;SDS011;25077;50.302;18.996;2022-11-14T03:41:54;201.90;;;28.73;;
39356;SDS011;25077;50.302;18.996;2022-11-14T03:45:14;199.37;;;29.60;;
39356;SDS011;25077;50.302;18.996;2022-11-14T03:48:36;173.63;;;29.23;;
39356;SDS011;25077;50.302;18.996;2022-11-14T03:56:42;169.90;;;25.73;;
39356;SDS011;25077;50.302;18.996;2022-11-14T04:00:02;182.37;;;25.47;;
39356;SDS011;25077;50.302;18.996;2022-11-14T04:03:23;142.90;;;24.93;;
39356;SDS011;25077;50.302;18.996;2022-11-14T04:06:45;80.47;;;26.67;;
39356;SDS011;25077;50.302;18.996;2022-11-14T04:10:05;100.07;;;23.07;;
39356;SDS011;25077;50.302;18.996;2022-11-14T04:13:26;63.60;;;22.07;;
39356;SDS011;25077;50.302;18.996;2022-11-14T04:16:46;65.53;;;22.40;;
39356;SDS011;25077;50.302;18.996;2022-11-14T04:20:08;47.37;;;22.83;;
39356;SDS011;25077;50.302;18.996;2022-11-14T04:23:30;88.77;;;23.40;;
39356;SDS011;25077;50.302;18.996;2022-11-14T04:26:51;129.47;;;21.13;;
39356;SDS011;25077;50.302;18.996;2022-11-14T04:30:11;86.07;;;21.23;;
39356;SDS011;25077;50.302;18.996;2022-11-14T04:33:31;87.33;;;23.50;;
39356;SDS011;25077;50.302;18.996;2022-11-14T04:36:51;149.33;;;22.77;;
39356;SDS011;25077;50.302;18.996;2022-11-14T04:40:13;134.13;;;21.97;;
39356;SDS011;25077;50.302;18.996;2022-11-14T04:43:34;117.50;;;20.70;;
39356;SDS011;25077;50.302;18.996;2022-11-14T04:46:54;154.93;;;22.10;;
39356;SDS011;25077;50.302;18.996;2022-11-14T04:50:15;67.60;;;20.77;;
39356;SDS011;25077;50.302;18.996;2022-11-14T04:53:35;103.13;;;20.50;;
39356;SDS011;25077;50.302;18.996;2022-11-14T04:56:57;98.80;;;17.93;;
39356;SDS011;25077;50.302;18.996;2022-11-14T05:00:18;110.90;;;18.83;;
39356;SDS011;25077;50.302;18.996;2022-11-14T05:03:39;90.53;;;18.87;;
39356;SDS011;25077;50.302;18.996;2022-11-14T05:06:59;145.43;;;18.40;;
39356;SDS011;25077;50.302;18.996;2022-11-14T05:10:19;171.30;;;18.83;;
39356;SDS011;25077;50.302;18.996;2022-11-14T05:13:41;106.37;;;19.30;;
39356;SDS011;25077;50.302;18.996;2022-11-14T05:17:01;102.27;;;19.17;;
39356;SDS011;25077;50.302;18.996;2022-11-14T05:20:21;97.77;;;18.57;;
39356;SDS011;25077;50.302;18.996;2022-11-14T05:23:42;129.27;;;20.07;;
39356;SDS011;25077;50.302;18.996;2022-11-14T05:27:02;60.77;;;20.37;;
39356;SDS011;25077;50.302;18.996;2022-11-14T05:30:24;116.93;;;23.47;;
39356;SDS011;25077;50.302;18.996;2022-11-14T05:33:44;102.83;;;22.20;;
39356;SDS011;25077;50.302;18.996;2022-11-14T05:37:05;100.83;;;23.70;;
39356;SDS011;25077;50.302;18.996;2022-11-14T05:40:26;162.40;;;25.97;;
39356;SDS011;25077;50.302;18.996;2022-11-14T05:43:47;110.00;;;22.20;;
39356;SDS011;25077;50.302;18.996;2022-11-14T05:47:08;123.60;;;23.93;;
39356;SDS011;25077;50.302;18.996;2022-11-14T05:50:29;151.63;;;23.87;;
39356;SDS011;25077;50.302;18.996;2022-11-14T05:53:49;135.50;;;23.43;;
39356;SDS011;25077;50.302;18.996;2022-11-14T05:57:09;215.07;;;26.00;;
39356;SDS011;25077;50.302;18.996;2022-11-14T06:00:29;247.17;;;30.93;;
39356;SDS011;25077;50.302;18.996;2022-11-14T06:03:51;165.10;;;25.17;;
39356;SDS011;25077;50.302;18.996;2022-11-14T06:07:12;156.37;;;24.53;;
39356;SDS011;25077;50.302;18.996;2022-11-14T06:10:33;248.43;;;23.40;;
39356;SDS011;25077;50.302;18.996;2022-11-14T06:13:53;209.60;;;24.70;;
39356;SDS011;25077;50.302;18.996;2022-11-14T06:17:13;124.40;;;22.90;;
39356;SDS011;25077;50.302;18.996;2022-11-14T06:20:36;87.77;;;23.40;;
39356;SDS011;25077;50.302;18.996;2022-11-14T06:25:15;152.20;;;24.17;;
39356;SDS011;25077;50.302;18.996;2022-11-14T06:28:35;93.97;;;22.67;;
39356;SDS011;25077;50.302;18.996;2022-11-14T06:31:56;112.67;;;22.33;;
39356;SDS011;25077;50.302;18.996;2022-11-14T06:35:16;133.43;;;18.03;;
39356;SDS011;25077;50.302;18.996;2022-11-14T06:38:38;166.60;;;19.47;;
39356;SDS011;25077;50.302;18.996;2022-11-14T06:42:00;92.07;;;19.83;;
39356;SDS011;25077;50.302;18.996;2022-11-14T06:45:20;88.80;;;18.80;;
39356;SDS011;25077;50.302;18.996;2022-11-14T06:48:41;165.97;;;22.60;;
39356;SDS011;25077;50.302;18.996;2022-11-14T06:52:03;93.87;;;22.53;;
39356;SDS011;25077;50.302;18.996;2022-11-14T06:55:24;109.50;;;23.57;;
39356;SDS011;25077;50.302;18.996;2022-11-14T06:58:46;79.87;;;20.53;;
39356;SDS011;25077;50.302;18.996;2022-11-14T07:02:09;157.97;;;24.10;;
39356;SDS011;25077;50.302;18.996;2022-11-14T07:05:30;113.07;;;21.13;;
39356;SDS011;25077;50.302;18.996;2022-11-14T07:13:38;100.20;;;20.40;;
39356;SDS011;25077;50.302;18.996;2022-11-14T07:16:58;86.67;;;19.67;;
39356;SDS011;25077;50.302;18.996;2022-11-14T07:20:18;62.53;;;19.40;;
39356;SDS011;25077;50.302;18.996;2022-11-14T07:23:39;143.23;;;22.97;;
39356;SDS011;25077;50.302;18.996;2022-11-14T07:27:00;130.70;;;20.13;;
39356;SDS011;25077;50.302;18.996;2022-11-14T07:30:22;155.43;;;23.17;;
39356;SDS011;25077;50.302;18.996;2022-11-14T07:33:42;113.83;;;20.27;;
39356;SDS011;25077;50.302;18.996;2022-11-14T07:37:03;85.13;;;15.53;;
39356;SDS011;25077;50.302;18.996;2022-11-14T07:40:24;58.10;;;16.53;;
39356;SDS011;25077;50.302;18.996;2022-11-14T07:43:44;90.93;;;14.93;;
39356;SDS011;25077;50.302;18.996;2022-11-14T07:47:06;102.20;;;13.37;;
39356;SDS011;25077;50.302;18.996;2022-11-14T07:50:27;40.00;;;11.97;;
39356;SDS011;25077;50.302;18.996;2022-11-14T07:58:34;44.63;;;13.90;;
39356;SDS011;25077;50.302;18.996;2022-11-14T08:01:54;41.00;;;13.53;;
39356;SDS011;25077;50.302;18.996;2022-11-14T08:05:16;46.07;;;15.93;;
39356;SDS011;25077;50.302;18.996;2022-11-14T08:08:37;38.47;;;15.60;;
39356;SDS011;25077;50.302;18.996;2022-11-14T08:11:57;54.97;;;15.70;;
39356;SDS011;25077;50.302;18.996;2022-11-14T08:15:17;30.90;;;16.03;;
39356;SDS011;25077;50.302;18.996;2022-11-14T08:18:37;35.53;;;17.07;;
39356;SDS011;25077;50.302;18.996;2022-11-14T08:21:59;32.90;;;16.73;;
39356;SDS011;25077;50.302;18.996;2022-11-14T08:25:19;39.10;;;17.77;;
39356;SDS011;25077;50.302;18.996;2022-11-14T08:28:39;39.53;;;17.37;;
39356;SDS011;25077;50.302;18.996;2022-11-14T08:32:00;58.00;;;17.57;;
39356;SDS011;25077;50.302;18.996;2022-11-14T08:35:20;33.60;;;16.03;;
39356;SDS011;25077;50.302;18.996;2022-11-14T08:43:28;45.23;;;15.50;;
39356;SDS011;25077;50.302;18.996;2022-11-14T08:46:49;31.40;;;15.23;;
39356;SDS011;25077;50.302;18.996;2022-11-14T08:50:09;40.03;;;15.43;;
39356;SDS011;25077;50.302;18.996;2022-11-14T08:53:30;30.97;;;15.77;;
39356;SDS011;25077;50.302;18.996;2022-11-14T08:56:50;35.43;;;15.83;;
39356;SDS011;25077;50.302;18.996;2022-11-14T09:00:13;30.00;;;14.67;;
39356;SDS011;25077;50.302;18.996;2022-11-14T09:03:34;37.17;;;15.00;;
39356;SDS011;25077;50.302;18.996;2022-11-14T09:06:54;27.40;;;14.40;;
39356;SDS011;25077;50.302;18.996;2022-11-14T09:10:16;32.87;;;15.33;;
39356;SDS011;25077;50.302;18.996;2022-11-14T09:13:37;47.23;;;17.30;;
39356;SDS011;25077;50.302;18.996;2022-11-14T09:16:59;30.77;;;15.67;;
39356;SDS011;25077;50.302;18.996;2022-11-14T09:20:19;34.37;;;16.27;;
39356;SDS011;25077;50.302;18.996;2022-11-14T09:28:25;31.67;;;16.00;;
39356;SDS011;25077;50.302;18.996;2022-11-14T09:31:45;28.60;;;15.73;;
39356;SDS011;25077;50.302;18.996;2022-11-14T09:35:06;28.50;;;16.47;;
39356;SDS011;25077;50.302;18.996;2022-11-14T09:38:27;32.07;;;16.83;;
39356;SDS011;25077;50.302;18.996;2022-11-14T09:41:51;31.33;;;19.03;;
39356;SDS011;25077;50.302;18.996;2022-11-14T09:45:24;37.20;;;18.60;;
39356;SDS011;25077;50.302;18.996;2022-11-14T09:48:45;35.03;;;18.77;;
39356;SDS011;25077;50.302;18.996;2022-11-14T09:52:14;32.37;;;19.07;;
39356;SDS011;25077;50.302;18.996;2022-11-14T09:55:44;29.07;;;18.07;;
39356;SDS011;25077;50.302;18.996;2022-11-14T09:59:04;30.20;;;17.00;;
39356;SDS011;25077;50.302;18.996;2022-11-14T10:02:38;32.57;;;17.47;;
39356;SDS011;25077;50.302;18.996;2022-11-14T10:06:19;43.73;;;19.20;;
39356;SDS011;25077;50.302;18.996;2022-11-14T10:14:22;33.57;;;19.43;;
39356;SDS011;25077;50.302;18.996;2022-11-14T10:18:02;29.60;;;17.17;;
39356;SDS011;25077;50.302;18.996;2022-11-14T10:21:43;25.57;;;15.13;;
39356;SDS011;25077;50.302;18.996;2022-11-14T10:25:51;25.93;;;15.63;;
39356;SDS011;25077;50.302;18.996;2022-11-14T10:29:32;28.03;;;16.30;;
39356;SDS011;25077;50.302;18.996;2022-11-14T10:33:10;31.67;;;16.90;;
39356;SDS011;25077;50.302;18.996;2022-11-14T10:36:47;24.73;;;15.90;;
39356;SDS011;25077;50.302;18.996;2022-11-14T10:41:19;27.47;;;15.60;;
39356;SDS011;25077;50.302;18.996;2022-11-14T10:44:46;28.57;;;16.57;;
39356;SDS011;25077;50.302;18.996;2022-11-14T10:48:11;27.87;;;17.50;;
39356;SDS011;25077;50.302;18.996;2022-11-14T10:51:36;31.90;;;19.13;;
39356;SDS011;25077;50.302;18.996;2022-11-14T10:55:00;31.10;;;18.30;;
39356;SDS011;25077;50.302;18.996;2022-11-14T10:58:24;30.27;;;18.87;;
39356;SDS011;25077;50.302;18.996;2022-11-14T11:01:52;33.73;;;20.23;;
39356;SDS011;25077;50.302;18.996;2022-11-14T11:05:14;38.03;;;21.13;;
39356;SDS011;25077;50.302;18.996;2022-11-14T11:08:40;43.83;;;24.57;;
39356;SDS011;25077;50.302;18.996;2022-11-14T11:12:19;40.03;;;24.60;;
39356;SDS011;25077;50.302;18.996;2022-11-14T11:15:41;38.90;;;23.23;;
39356;SDS011;25077;50.302;18.996;2022-11-14T11:19:20;43.23;;;24.73;;
39356;SDS011;25077;50.302;18.996;2022-11-14T11:27:13;43.57;;;23.93;;
39356;SDS011;25077;50.302;18.996;2022-11-14T11:30:40;46.47;;;26.20;;
39356;SDS011;25077;50.302;18.996;2022-11-14T11:34:16;38.47;;;24.20;;
39356;SDS011;25077;50.302;18.996;2022-11-14T11:37:45;40.47;;;24.13;;
39356;SDS011;25077;50.302;18.996;2022-11-14T11:41:15;47.90;;;25.17;;
39356;SDS011;25077;50.302;18.996;2022-11-14T11:44:42;36.13;;;22.73;;
39356;SDS011;25077;50.302;18.996;2022-11-14T11:48:07;30.90;;;21.00;;
39356;SDS011;25077;50.302;18.996;2022-11-14T11:51:39;42.40;;;21.57;;
39356;SDS011;25077;50.302;18.996;2022-11-14T11:59:26;36.97;;;24.30;;
39356;SDS011;25077;50.302;18.996;2022-11-14T12:02:52;37.03;;;23.50;;
39356;SDS011;25077;50.302;18.996;2022-11-14T12:06:14;40.73;;;25.93;;
39356;SDS011;25077;50.302;18.996;2022-11-14T12:09:39;48.43;;;27.50;;
39356;SDS011;25077;50.302;18.996;2022-11-14T12:13:05;50.33;;;26.77;;
39356;SDS011;25077;50.302;18.996;2022-11-14T12:16:51;51.43;;;29.17;;
39356;SDS011;25077;50.302;18.996;2022-11-14T12:28:37;36.00;;;23.03;;
39356;SDS011;25077;50.302;18.996;2022-11-14T12:32:12;36.53;;;24.73;;
39356;SDS011;25077;50.302;18.996;2022-11-14T12:35:39;36.23;;;23.23;;
39356;SDS011;25077;50.302;18.996;2022-11-14T12:39:19;32.43;;;23.23;;
39356;SDS011;25077;50.302;18.996;2022-11-14T12:42:44;35.53;;;23.90;;
39356;SDS011;25077;50.302;18.996;2022-11-14T12:46:08;35.57;;;22.23;;
39356;SDS011;25077;50.302;18.996;2022-11-14T12:49:36;31.20;;;21.00;;
39356;SDS011;25077;50.302;18.996;2022-11-14T12:52:57;26.47;;;18.30;;
39356;SDS011;25077;50.302;18.996;2022-11-14T12:56:36;28.30;;;18.83;;
39356;SDS011;25077;50.302;18.996;2022-11-14T13:00:10;26.10;;;17.87;;
39356;SDS011;25077;50.302;18.996;2022-11-14T13:03:37;24.50;;;18.52;;
39356;SDS011;25077;50.302;18.996;2022-11-14T13:07:21;25.33;;;18.38;;
39356;SDS011;25077;50.302;18.996;2022-11-14T13:11:55;23.35;;;16.20;;
39356;SDS011;25077;50.302;18.996;2022-11-14T13:15:35;24.20;;;15.70;;
39356;SDS011;25077;50.302;18.996;2022-11-14T13:19:31;19.63;;;14.02;;
39356;SDS011;25077;50.302;18.996;2022-11-14T13:27:23;22.38;;;14.18;;
39356;SDS011;25077;50.302;18.996;2022-11-14T13:34:50;25.25;;;14.95;;
39356;SDS011;25077;50.302;18.996;2022-11-14T13:38:22;20.85;;;15.70;;
39356;SDS011;25077;50.302;18.996;2022-11-14T13:45:48;22.63;;;16.65;;
39356;SDS011;25077;50.302;18.996;2022-11-14T13:49:23;27.80;;;15.98;;
39356;SDS011;25077;50.302;18.996;2022-11-14T13:52:58;24.13;;;16.67;;
39356;SDS011;25077;50.302;18.996;2022-11-14T13:57:25;26.50;;;16.10;;
39356;SDS011;25077;50.302;18.996;2022-11-14T14:00:56;21.00;;;16.75;;
39356;SDS011;25077;50.302;18.996;2022-11-14T14:04:34;21.60;;;16.25;;
39356;SDS011;25077;50.302;18.996;2022-11-14T14:08:11;19.02;;;15.45;;
39356;SDS011;25077;50.302;18.996;2022-11-14T14:12:19;18.60;;;14.15;;
39356;SDS011;25077;50.302;18.996;2022-11-14T14:15:49;19.10;;;12.90;;
39356;SDS011;25077;50.302;18.996;2022-11-14T14:19:21;18.80;;;12.80;;
39356;SDS011;25077;50.302;18.996;2022-11-14T14:22:54;21.90;;;14.30;;
39356;SDS011;25077;50.302;18.996;2022-11-14T14:26:23;20.63;;;13.37;;
39356;SDS011;25077;50.302;18.996;2022-11-14T14:29:54;16.80;;;13.47;;
39356;SDS011;25077;50.302;18.996;2022-11-14T14:33:22;19.07;;;14.00;;
39356;SDS011;25077;50.302;18.996;2022-11-14T14:36:47;21.50;;;13.57;;
39356;SDS011;25077;50.302;18.996;2022-11-14T14:44:36;23.43;;;15.17;;
39356;SDS011;25077;50.302;18.996;2022-11-14T14:47:58;23.50;;;15.50;;
39356;SDS011;25077;50.302;18.996;2022-11-14T14:51:28;21.07;;;14.43;;
39356;SDS011;25077;50.302;18.996;2022-11-14T14:54:52;19.63;;;13.90;;
39356;SDS011;25077;50.302;18.996;2022-11-14T14:58:14;22.47;;;14.63;;
39356;SDS011;25077;50.302;18.996;2022-11-14T15:01:44;21.57;;;13.70;;
39356;SDS011;25077;50.302;18.996;2022-11-14T15:05:04;22.53;;;14.07;;
39356;SDS011;25077;50.302;18.996;2022-11-14T15:08:25;25.30;;;15.87;;
39356;SDS011;25077;50.302;18.996;2022-11-14T15:12:54;30.63;;;17.17;;
39356;SDS011;25077;50.302;18.996;2022-11-14T15:16:16;24.73;;;16.70;;
39356;SDS011;25077;50.302;18.996;2022-11-14T15:19:39;23.73;;;15.77;;
39356;SDS011;25077;50.302;18.996;2022-11-14T15:23:02;28.10;;;16.50;;
39356;SDS011;25077;50.302;18.996;2022-11-14T15:26:23;28.73;;;18.10;;
39356;SDS011;25077;50.302;18.996;2022-11-14T15:29:44;26.60;;;17.57;;
39356;SDS011;25077;50.302;18.996;2022-11-14T15:44:37;29.43;;;17.37;;
39356;SDS011;25077;50.302;18.996;2022-11-14T15:48:00;32.00;;;18.97;;
39356;SDS011;25077;50.302;18.996;2022-11-14T15:51:43;33.67;;;19.43;;
39356;SDS011;25077;50.302;18.996;2022-11-14T15:55:11;32.07;;;19.90;;
39356;SDS011;25077;50.302;18.996;2022-11-14T15:58:33;33.27;;;19.40;;
39356;SDS011;25077;50.302;18.996;2022-11-14T16:01:54;34.83;;;19.23;;
39356;SDS011;25077;50.302;18.996;2022-11-14T16:05:18;36.47;;;20.03;;
39356;SDS011;25077;50.302;18.996;2022-11-14T16:08:43;33.07;;;18.83;;
39356;SDS011;25077;50.302;18.996;2022-11-14T16:16:51;32.47;;;18.10;;
39356;SDS011;25077;50.302;18.996;2022-11-14T16:20:13;36.77;;;19.77;;
39356;SDS011;25077;50.302;18.996;2022-11-14T16:23:35;31.80;;;18.30;;
39356;SDS011;25077;50.302;18.996;2022-11-14T16:26:57;36.47;;;20.57;;
39356;SDS011;25077;50.302;18.996;2022-11-14T16:30:18;31.23;;;19.03;;
39356;SDS011;25077;50.302;18.996;2022-11-14T16:33:40;36.17;;;18.83;;
39356;SDS011;25077;50.302;18.996;2022-11-14T16:37:00;34.13;;;19.83;;
39356;SDS011;25077;50.302;18.996;2022-11-14T16:45:07;38.10;;;21.73;;
39356;SDS011;25077;50.302;18.996;2022-11-14T16:48:28;49.83;;;25.90;;
39356;SDS011;25077;50.302;18.996;2022-11-14T16:51:50;48.53;;;22.57;;
39356;SDS011;25077;50.302;18.996;2022-11-14T16:55:13;44.10;;;21.03;;
39356;SDS011;25077;50.302;18.996;2022-11-14T16:58:33;37.43;;;20.53;;
39356;SDS011;25077;50.302;18.996;2022-11-14T17:01:56;43.30;;;21.20;;
39356;SDS011;25077;50.302;18.996;2022-11-14T17:05:16;45.97;;;21.10;;
39356;SDS011;25077;50.302;18.996;2022-11-14T17:08:38;44.70;;;21.43;;
39356;SDS011;25077;50.302;18.996;2022-11-14T17:16:44;36.77;;;21.33;;
39356;SDS011;25077;50.302;18.996;2022-11-14T17:20:05;36.90;;;20.33;;
39356;SDS011;25077;50.302;18.996;2022-11-14T17:23:26;37.00;;;20.20;;
39356;SDS011;25077;50.302;18.996;2022-11-14T17:26:48;34.27;;;21.00;;
39356;SDS011;25077;50.302;18.996;2022-11-14T17:30:09;40.37;;;22.40;;
39356;SDS011;25077;50.302;18.996;2022-11-14T17:33:30;39.70;;;22.73;;
39356;SDS011;25077;50.302;18.996;2022-11-14T17:36:51;42.13;;;23.60;;
39356;SDS011;25077;50.302;18.996;2022-11-14T17:44:58;43.37;;;23.60;;
39356;SDS011;25077;50.302;18.996;2022-11-14T17:48:18;45.43;;;24.50;;
39356;SDS011;25077;50.302;18.996;2022-11-14T17:51:39;41.53;;;24.27;;
39356;SDS011;25077;50.302;18.996;2022-11-14T17:54:59;45.37;;;24.83;;
39356;SDS011;25077;50.302;18.996;2022-11-14T17:59:29;42.87;;;22.73;;
39356;SDS011;25077;50.302;18.996;2022-11-14T18:02:51;45.63;;;23.70;;
39356;SDS011;25077;50.302;18.996;2022-11-14T18:06:12;50.47;;;25.50;;
39356;SDS011;25077;50.302;18.996;2022-11-14T18:09:34;48.53;;;25.03;;
39356;SDS011;25077;50.302;18.996;2022-11-14T18:12:54;45.23;;;25.13;;
39356;SDS011;25077;50.302;18.996;2022-11-14T18:16:15;42.33;;;23.93;;
39356;SDS011;25077;50.302;18.996;2022-11-14T18:19:38;47.53;;;24.93;;
39356;SDS011;25077;50.302;18.996;2022-11-14T18:22:59;50.70;;;24.57;;
39356;SDS011;25077;50.302;18.996;2022-11-14T18:26:20;63.20;;;24.67;;
39356;SDS011;25077;50.302;18.996;2022-11-14T18:29:45;50.47;;;24.17;;
39356;SDS011;25077;50.302;18.996;2022-11-14T18:33:06;43.83;;;23.93;;
39356;SDS011;25077;50.302;18.996;2022-11-14T18:36:28;55.80;;;22.50;;
39356;SDS011;25077;50.302;18.996;2022-11-14T18:39:48;43.03;;;21.73;;
39356;SDS011;25077;50.302;18.996;2022-11-14T18:43:08;53.60;;;23.00;;
39356;SDS011;25077;50.302;18.996;2022-11-14T18:46:28;44.83;;;23.53;;
39356;SDS011;25077;50.302;18.996;2022-11-14T18:49:49;49.47;;;25.27;;
39356;SDS011;25077;50.302;18.996;2022-11-14T18:53:11;47.53;;;25.70;;
39356;SDS011;25077;50.302;18.996;2022-11-14T18:56:31;47.77;;;25.73;;
39356;SDS011;25077;50.302;18.996;2022-11-14T18:59:51;63.27;;;24.77;;
39356;SDS011;25077;50.302;18.996;2022-11-14T19:03:12;54.23;;;24.27;;
39356;SDS011;25077;50.302;18.996;2022-11-14T19:06:34;64.00;;;25.07;;
39356;SDS011;25077;50.302;18.996;2022-11-14T19:09:57;89.63;;;27.20;;
39356;SDS011;25077;50.302;18.996;2022-11-14T19:13:17;84.73;;;24.93;;
39356;SDS011;25077;50.302;18.996;2022-11-14T19:16:42;69.70;;;26.23;;
39356;SDS011;25077;50.302;18.996;2022-11-14T19:20:03;55.30;;;25.00;;
39356;SDS011;25077;50.302;18.996;2022-11-14T19:23:24;50.40;;;24.23;;
39356;SDS011;25077;50.302;18.996;2022-11-14T19:32:22;53.87;;;26.57;;
39356;SDS011;25077;50.302;18.996;2022-11-14T19:35:43;62.87;;;27.57;;
39356;SDS011;25077;50.302;18.996;2022-11-14T19:39:03;74.97;;;27.33;;
39356;SDS011;25077;50.302;18.996;2022-11-14T19:47:09;94.80;;;25.73;;
39356;SDS011;25077;50.302;18.996;2022-11-14T19:50:31;60.07;;;25.80;;
39356;SDS011;25077;50.302;18.996;2022-11-14T19:53:52;76.17;;;25.77;;
39356;SDS011;25077;50.302;18.996;2022-11-14T20:02:50;44.07;;;21.53;;
39356;SDS011;25077;50.302;18.996;2022-11-14T20:06:13;64.13;;;22.30;;
39356;SDS011;25077;50.302;18.996;2022-11-14T20:09:35;120.10;;;22.23;;
39356;SDS011;25077;50.302;18.996;2022-11-14T20:17:41;54.80;;;21.60;;
39356;SDS011;25077;50.302;18.996;2022-11-14T20:21:02;56.50;;;22.80;;
39356;SDS011;25077;50.302;18.996;2022-11-14T20:24:24;67.80;;;21.27;;
39356;SDS011;25077;50.302;18.996;2022-11-14T20:27:44;84.17;;;20.60;;
39356;SDS011;25077;50.302;18.996;2022-11-14T20:31:08;63.87;;;21.27;;
39356;SDS011;25077;50.302;18.996;2022-11-14T20:34:31;97.83;;;22.83;;
39356;SDS011;25077;50.302;18.996;2022-11-14T20:37:51;73.57;;;20.87;;
39356;SDS011;25077;50.302;18.996;2022-11-14T20:41:13;107.63;;;22.57;;
39356;SDS011;25077;50.302;18.996;2022-11-14T20:45:52;90.47;;;22.37;;
39356;SDS011;25077;50.302;18.996;2022-11-14T20:49:13;131.77;;;23.77;;
39356;SDS011;25077;50.302;18.996;2022-11-14T20:52:34;89.40;;;22.23;;
39356;SDS011;25077;50.302;18.996;2022-11-14T20:55:56;86.27;;;21.60;;
39356;SDS011;25077;50.302;18.996;2022-11-14T20:59:18;129.90;;;21.77;;
39356;SDS011;25077;50.302;18.996;2022-11-14T21:02:38;133.97;;;23.63;;
39356;SDS011;25077;50.302;18.996;2022-11-14T21:05:58;118.77;;;21.73;;
39356;SDS011;25077;50.302;18.996;2022-11-14T21:09:19;131.67;;;23.07;;
39356;SDS011;25077;50.302;18.996;2022-11-14T21:12:39;78.60;;;22.43;;
39356;SDS011;25077;50.302;18.996;2022-11-14T21:16:02;44.50;;;23.83;;
39356;SDS011;25077;50.302;18.996;2022-11-14T21:19:24;61.73;;;23.17;;
39356;SDS011;25077;50.302;18.996;2022-11-14T21:22:45;63.53;;;23.33;;
39356;SDS011;25077;50.302;18.996;2022-11-14T21:26:06;51.90;;;21.63;;
39356;SDS011;25077;50.302;18.996;2022-11-14T21:33:21;79.67;;;21.63;;
39356;SDS011;25077;50.302;18.996;2022-11-14T21:36:42;105.50;;;23.57;;
39356;SDS011;25077;50.302;18.996;2022-11-14T21:40:04;120.73;;;25.40;;
39356;SDS011;25077;50.302;18.996;2022-11-14T21:43:25;62.87;;;22.37;;
39356;SDS011;25077;50.302;18.996;2022-11-14T21:46:45;75.17;;;21.77;;
39356;SDS011;25077;50.302;18.996;2022-11-14T21:50:08;110.27;;;22.27;;
39356;SDS011;25077;50.302;18.996;2022-11-14T21:53:29;68.50;;;22.23;;
39356;SDS011;25077;50.302;18.996;2022-11-14T21:56:49;44.70;;;22.43;;
39356;SDS011;25077;50.302;18.996;2022-11-14T22:01:14;54.77;;;22.70;;
39356;SDS011;25077;50.302;18.996;2022-11-14T22:04:57;90.90;;;22.90;;